National Weather Service Raw Text Product

Displaying AFOS PIL: TAFMCW Received: 2018-03-08 23:39 UTC


799 
FTUS43 KDMX 082339
TAFMCW
TAF
KMCW 082339Z 0900/0924 VRB04KT P6SM FEW250
     FM090800 11004KT P6SM BKN120
     FM092100 10005KT P6SM SCT150=